createdAt,value
2022-10-02T00:02:27.602Z,4.67
2022-10-02T00:05:00.157Z,4.37
2022-10-02T00:07:31.930Z,3.50
2022-10-02T00:10:11.717Z,4.37
2022-10-02T00:12:39.835Z,3.60
2022-10-02T00:15:15.115Z,4.53
2022-10-02T00:17:47.588Z,3.83
2022-10-02T00:20:17.484Z,4.60
2022-10-02T00:22:52.400Z,4.53
2022-10-02T00:25:28.249Z,5.07
2022-10-02T00:28:14.454Z,4.10
2022-10-02T00:31:01.375Z,4.17
2022-10-02T00:33:44.178Z,4.80
2022-10-02T00:36:23.256Z,4.33
2022-10-02T00:39:01.449Z,4.30
2022-10-02T00:42:05.582Z,5.67
2022-10-02T00:44:49.296Z,4.30
2022-10-02T00:47:28.596Z,4.50
2022-10-02T00:50:27.078Z,5.00
2022-10-02T00:53:09.424Z,4.67
2022-10-02T00:55:53.062Z,5.57
2022-10-02T00:58:48.216Z,4.60
2022-10-02T01:01:21.581Z,4.20
2022-10-02T01:03:56.796Z,4.43
2022-10-02T01:06:28.342Z,5.00
2022-10-02T01:09:05.028Z,4.70
2022-10-02T01:11:37.125Z,4.40
2022-10-02T01:14:06.021Z,4.73
2022-10-02T01:16:34.364Z,4.30
2022-10-02T01:19:10.364Z,5.33
2022-10-02T01:21:45.328Z,5.00
2022-10-02T01:24:21.872Z,5.90
2022-10-02T01:26:53.269Z,4.47
2022-10-02T01:29:21.592Z,5.13
2022-10-02T01:31:49.998Z,5.63
2022-10-02T01:34:18.237Z,4.80
2022-10-02T01:36:51.411Z,6.00
2022-10-02T01:39:19.336Z,4.10
2022-10-02T01:41:47.136Z,5.60
2022-10-02T01:44:17.419Z,5.47
2022-10-02T01:46:53.329Z,6.13
2022-10-02T01:49:53.501Z,5.30
2022-10-02T01:52:39.264Z,5.17
2022-10-02T01:55:21.902Z,6.40
2022-10-02T01:58:16.581Z,5.40
2022-10-02T02:01:06.353Z,5.70
2022-10-02T02:03:46.820Z,6.13
2022-10-02T02:06:22.982Z,6.10
2022-10-02T02:09:02.086Z,5.57
2022-10-02T02:11:31.267Z,6.97
2022-10-02T02:14:02.648Z,6.10
2022-10-02T02:16:40.523Z,5.20
2022-10-02T02:19:14.005Z,5.90
2022-10-02T02:21:46.167Z,5.20
2022-10-02T02:24:23.696Z,5.37
2022-10-02T02:26:57.790Z,5.97
2022-10-02T02:32:20.308Z,6.60
2022-10-02T02:34:53.294Z,6.97
2022-10-02T02:37:24.190Z,7.40
2022-10-02T02:39:56.283Z,5.73
2022-10-02T02:42:32.197Z,5.27
2022-10-02T02:45:04.505Z,5.80
2022-10-02T02:47:47.229Z,5.80
2022-10-02T02:50:22.670Z,7.90
2022-10-02T02:52:54.524Z,6.57
2022-10-02T02:55:28.627Z,6.30
2022-10-02T02:58:03.740Z,9.40
2022-10-02T03:00:31.671Z,6.90
2022-10-02T03:03:03.783Z,6.53
2022-10-02T03:05:35.697Z,6.73
2022-10-02T03:08:06.092Z,7.10
2022-10-02T03:10:45.018Z,6.10
2022-10-02T03:13:37.092Z,7.50
2022-10-02T03:16:19.709Z,7.07
2022-10-02T03:19:10.944Z,8.17
2022-10-02T03:21:53.070Z,7.43
2022-10-02T03:24:28.160Z,7.60
2022-10-02T03:27:01.762Z,6.60
2022-10-02T03:29:34.015Z,8.20
2022-10-02T03:32:10.474Z,7.30
2022-10-02T03:34:40.958Z,8.90
2022-10-02T03:37:09.251Z,8.53
2022-10-02T03:39:43.926Z,6.80
2022-10-02T03:42:14.271Z,7.23
2022-10-02T03:44:43.310Z,7.63
2022-10-02T03:47:13.660Z,7.00
2022-10-02T03:49:50.281Z,7.93
2022-10-02T03:52:20.040Z,6.17
2022-10-02T03:54:49.397Z,5.53
2022-10-02T03:57:21.898Z,6.17
2022-10-02T03:59:54.614Z,5.53
2022-10-02T04:02:31.215Z,7.20
2022-10-02T04:05:09.088Z,7.17
2022-10-02T04:07:43.269Z,7.57
2022-10-02T04:10:33.532Z,6.40
2022-10-02T04:13:09.914Z,7.07
2022-10-02T04:15:50.106Z,7.80
2022-10-02T04:18:23.949Z,7.27
2022-10-02T04:20:58.344Z,7.50
2022-10-02T04:23:40.243Z,6.87
2022-10-02T04:26:17.672Z,7.03
2022-10-02T04:28:52.524Z,6.70
2022-10-02T04:31:20.344Z,7.57
2022-10-02T04:33:48.229Z,6.27
2022-10-02T04:36:31.478Z,9.30
2022-10-02T04:39:24.768Z,6.43
2022-10-02T04:42:15.568Z,6.87
2022-10-02T04:45:00.998Z,6.57
2022-10-02T04:48:07.604Z,6.50
2022-10-02T04:50:55.060Z,5.70
2022-10-02T04:57:06.625Z,5.10
2022-10-02T04:59:48.542Z,6.23
2022-10-02T05:02:32.922Z,4.87
2022-10-02T05:05:29.167Z,5.17
2022-10-02T05:08:23.520Z,4.43
2022-10-02T05:11:07.657Z,4.27
2022-10-02T05:13:54.639Z,4.80
2022-10-02T05:16:37.061Z,5.60
2022-10-02T05:19:37.702Z,3.10
2022-10-02T05:22:25.031Z,4.20
2022-10-02T05:25:06.153Z,3.40
2022-10-02T05:27:57.797Z,2.20
2022-10-02T05:30:28.459Z,4.80
2022-10-02T05:33:22.567Z,3.50
2022-10-02T05:36:17.354Z,3.53
2022-10-02T05:38:57.170Z,3.83
2022-10-02T05:41:31.761Z,3.30
2022-10-02T05:44:06.079Z,3.77
2022-10-02T05:46:41.104Z,3.80
2022-10-02T05:49:16.472Z,3.37
2022-10-02T05:52:00.627Z,3.87
2022-10-02T05:54:51.068Z,2.30
2022-10-02T05:57:27.407Z,3.17
2022-10-02T06:00:07.745Z,2.03
2022-10-02T06:02:46.621Z,2.13
2022-10-02T06:05:19.731Z,2.80
2022-10-02T06:07:53.409Z,2.20
2022-10-02T06:10:28.408Z,2.87
2022-10-02T06:13:04.430Z,2.40
2022-10-02T06:15:40.813Z,2.50
2022-10-02T06:18:14.752Z,2.20
2022-10-02T06:20:49.284Z,2.00
2022-10-02T06:23:25.738Z,2.43
2022-10-02T06:25:56.634Z,2.90
2022-10-02T06:28:30.802Z,2.37
2022-10-02T06:31:12.541Z,2.73
2022-10-02T06:33:40.811Z,3.23
2022-10-02T06:36:32.722Z,3.60
2022-10-02T06:39:37.455Z,2.53
2022-10-02T06:42:27.182Z,2.80
2022-10-02T06:48:03.039Z,2.90
2022-10-02T06:50:44.366Z,3.13
2022-10-02T06:53:45.486Z,3.30
2022-10-02T06:56:29.697Z,3.37
2022-10-02T06:59:22.485Z,3.20
2022-10-02T07:01:58.512Z,3.77
2022-10-02T07:04:52.999Z,3.90
2022-10-02T07:07:39.631Z,4.13
2022-10-02T07:10:29.848Z,3.80
2022-10-02T07:13:24.274Z,4.33
2022-10-02T07:16:21.061Z,4.37
2022-10-02T07:19:25.407Z,3.67
2022-10-02T07:22:20.351Z,3.97
2022-10-02T07:25:07.706Z,4.90
2022-10-02T07:27:48.067Z,6.20
2022-10-02T07:30:19.424Z,5.20
2022-10-02T07:32:48.737Z,5.67
2022-10-02T07:35:39.907Z,5.50
2022-10-02T07:38:46.726Z,5.80
2022-10-02T07:41:46.003Z,5.97
2022-10-02T07:44:27.947Z,6.13
2022-10-02T07:47:03.168Z,4.87
2022-10-02T07:49:44.082Z,5.80
2022-10-02T07:52:20.990Z,5.87
2022-10-02T07:55:17.468Z,4.87
2022-10-02T07:57:53.243Z,6.37
2022-10-02T08:00:24.965Z,6.73
2022-10-02T08:02:57.277Z,5.57
2022-10-02T08:05:28.739Z,6.00
2022-10-02T08:08:01.902Z,5.63
2022-10-02T08:10:37.733Z,7.17
2022-10-02T08:13:15.024Z,6.70
2022-10-02T08:15:45.960Z,6.50
2022-10-02T08:18:36.945Z,7.10
2022-10-02T08:21:10.742Z,5.40
2022-10-02T08:23:43.876Z,6.70
2022-10-02T08:26:20.161Z,7.60
2022-10-02T08:28:54.160Z,6.50
2022-10-02T08:31:29.267Z,6.30
2022-10-02T08:34:01.880Z,5.80
2022-10-02T08:36:59.802Z,5.43
2022-10-02T08:39:52.604Z,5.83
2022-10-02T08:42:55.006Z,7.70
2022-10-02T08:46:00.255Z,8.20
2022-10-02T08:49:15.805Z,6.93
2022-10-02T08:52:18.662Z,6.00
2022-10-02T08:55:25.262Z,6.23
2022-10-02T08:58:37.763Z,6.77
2022-10-02T09:01:20.554Z,5.70
2022-10-02T09:04:40.590Z,6.40
2022-10-02T09:07:47.099Z,6.80
2022-10-02T09:10:51.527Z,7.13
2022-10-02T09:13:55.399Z,7.13
2022-10-02T09:16:31.952Z,7.53
2022-10-02T09:19:03.365Z,6.80
2022-10-02T09:21:51.127Z,6.20
2022-10-02T09:24:59.595Z,6.13
2022-10-02T09:28:20.234Z,6.00
2022-10-02T09:31:27.193Z,7.77
2022-10-02T09:34:33.926Z,7.00
2022-10-02T09:37:28.633Z,7.07
2022-10-02T09:40:26.768Z,7.07
2022-10-02T09:43:51.795Z,7.27
2022-10-02T09:47:05.446Z,6.40
2022-10-02T09:50:10.202Z,6.83
2022-10-02T09:53:19.138Z,7.80
2022-10-02T09:56:26.795Z,7.50
2022-10-02T09:59:21.768Z,7.17
2022-10-02T10:02:10.051Z,7.60
2022-10-02T10:05:25.532Z,7.60
2022-10-02T10:08:25.268Z,8.67
2022-10-02T10:11:19.773Z,7.93
2022-10-02T10:14:26.551Z,8.80
2022-10-02T10:17:21.009Z,8.07
2022-10-02T10:20:19.124Z,8.90
2022-10-02T10:23:08.378Z,9.80
2022-10-02T10:26:05.553Z,9.80
2022-10-02T10:29:10.268Z,8.80
2022-10-02T10:32:21.567Z,8.50
2022-10-02T10:35:26.217Z,10.90
2022-10-02T10:38:36.697Z,10.27
2022-10-02T10:41:28.242Z,8.37
2022-10-02T10:44:27.233Z,10.17
2022-10-02T10:47:28.047Z,6.90
2022-10-02T10:50:26.561Z,6.80
2022-10-02T10:53:26.884Z,6.63
2022-10-02T10:56:29.888Z,8.50
2022-10-02T10:59:34.892Z,5.80
2022-10-02T11:02:22.113Z,5.33
2022-10-02T11:05:09.770Z,5.33
2022-10-02T11:07:56.407Z,4.53
2022-10-02T11:10:45.802Z,4.87
2022-10-02T11:13:33.060Z,5.33
2022-10-02T11:16:33.379Z,5.47
2022-10-02T11:19:35.300Z,4.80
2022-10-02T11:22:20.851Z,4.70
2022-10-02T11:25:13.374Z,5.00
2022-10-02T11:28:00.101Z,5.03
2022-10-02T11:30:48.013Z,5.00
2022-10-02T11:33:50.112Z,4.40
2022-10-02T11:36:48.517Z,4.30
2022-10-02T11:39:21.764Z,4.07
2022-10-02T11:42:17.753Z,3.60
2022-10-02T11:45:04.215Z,3.57
2022-10-02T11:48:13.793Z,3.53
2022-10-02T11:51:20.988Z,3.70
2022-10-02T11:54:12.632Z,2.97
2022-10-02T11:57:06.153Z,3.00
2022-10-02T11:59:51.664Z,3.53
2022-10-02T12:02:30.336Z,2.73
2022-10-02T12:05:15.414Z,3.10
2022-10-02T12:07:52.575Z,3.10
2022-10-02T12:10:34.307Z,2.80
2022-10-02T12:13:21.768Z,2.80
2022-10-02T12:16:04.352Z,3.50
2022-10-02T12:18:47.558Z,3.33
2022-10-02T12:21:48.343Z,2.57
2022-10-02T12:24:43.581Z,3.30
2022-10-02T12:27:17.883Z,2.50
2022-10-02T12:30:04.114Z,2.33
2022-10-02T12:32:48.126Z,3.37
2022-10-02T12:35:32.271Z,2.63
2022-10-02T12:38:14.385Z,2.70
2022-10-02T12:40:52.535Z,2.43
2022-10-02T12:43:45.035Z,2.77
2022-10-02T12:46:25.192Z,3.43
2022-10-02T12:49:25.656Z,3.03
2022-10-02T12:52:23.785Z,3.63
2022-10-02T12:55:28.109Z,2.77
2022-10-02T12:58:10.179Z,3.60
2022-10-02T13:00:57.911Z,2.93
2022-10-02T13:04:16.446Z,2.73
2022-10-02T13:07:23.258Z,2.30
2022-10-02T13:09:54.872Z,3.43
2022-10-02T13:12:51.951Z,2.90
2022-10-02T13:15:37.489Z,3.80
2022-10-02T13:18:34.699Z,2.77
2022-10-02T13:21:14.511Z,2.90
2022-10-02T13:23:52.304Z,3.20
2022-10-02T13:26:32.481Z,3.10
2022-10-02T13:29:32.636Z,2.50
2022-10-02T13:32:27.463Z,2.10
2022-10-02T13:35:17.827Z,2.80
2022-10-02T13:37:54.296Z,2.30
2022-10-02T13:40:31.949Z,3.37
2022-10-02T13:43:45.016Z,3.30
2022-10-02T13:46:26.928Z,3.10
2022-10-02T13:49:08.993Z,2.70
2022-10-02T13:51:46.201Z,2.30
2022-10-02T13:54:30.410Z,2.93
2022-10-02T13:57:07.640Z,3.33
2022-10-02T13:59:51.098Z,2.37
2022-10-02T14:02:49.551Z,2.60
2022-10-02T14:05:31.936Z,3.10
2022-10-02T14:08:32.483Z,2.23
2022-10-02T14:11:11.122Z,2.63
2022-10-02T14:13:55.233Z,2.47
2022-10-02T14:16:47.117Z,2.40
2022-10-02T14:19:48.670Z,2.17
2022-10-02T14:22:34.032Z,2.63
2022-10-02T14:25:14.831Z,2.23
2022-10-02T14:28:07.028Z,2.40
2022-10-02T14:30:50.800Z,2.53
2022-10-02T14:33:35.904Z,2.67
2022-10-02T14:36:13.812Z,2.40
2022-10-02T14:39:04.204Z,2.27
2022-10-02T14:41:52.376Z,2.27
2022-10-02T14:44:38.854Z,3.03
2022-10-02T14:47:34.029Z,3.40
2022-10-02T14:50:28.129Z,2.23
2022-10-02T14:53:17.486Z,2.60
2022-10-02T14:56:07.731Z,2.07
2022-10-02T14:58:49.108Z,2.23
2022-10-02T15:01:22.866Z,2.63
2022-10-02T15:04:30.414Z,1.83
2022-10-02T15:07:06.589Z,2.37
2022-10-02T15:10:01.500Z,2.13
2022-10-02T15:12:43.491Z,2.50
2022-10-02T15:15:16.275Z,2.77
2022-10-02T15:18:04.828Z,2.93
2022-10-02T15:20:40.929Z,5.67
2022-10-02T15:23:13.497Z,2.93
2022-10-02T15:26:03.717Z,3.20
2022-10-02T15:28:50.724Z,2.50
2022-10-02T15:31:27.377Z,2.63
2022-10-02T15:34:07.859Z,2.60
2022-10-02T15:37:09.256Z,3.30
2022-10-02T15:40:05.849Z,3.20
2022-10-02T15:42:50.120Z,3.07
2022-10-02T15:45:41.242Z,2.63
2022-10-02T15:48:52.510Z,2.27
2022-10-02T15:51:34.591Z,2.40
2022-10-02T15:54:17.875Z,3.97
2022-10-02T15:57:08.359Z,2.20
2022-10-02T15:59:48.956Z,3.10
2022-10-02T16:02:36.629Z,3.33
2022-10-02T16:05:18.213Z,3.20
2022-10-02T16:08:08.753Z,5.37
2022-10-02T16:10:42.634Z,4.57
2022-10-02T16:13:31.680Z,4.33
2022-10-02T16:16:08.913Z,4.30
2022-10-02T16:18:54.500Z,3.50
2022-10-02T16:21:51.330Z,2.37
2022-10-02T16:24:47.788Z,2.87
2022-10-02T16:27:46.152Z,2.23
2022-10-02T16:30:16.258Z,2.67
2022-10-02T16:33:01.004Z,3.07
2022-10-02T16:36:17.702Z,2.97
2022-10-02T16:38:50.366Z,1.77
2022-10-02T16:41:27.726Z,2.53
2022-10-02T16:44:06.071Z,2.37
2022-10-02T16:46:40.176Z,2.60
2022-10-02T16:49:31.898Z,2.80
2022-10-02T16:52:07.691Z,3.20
2022-10-02T16:54:45.559Z,2.67
2022-10-02T16:57:25.602Z,2.50
2022-10-02T17:00:03.834Z,2.60
2022-10-02T17:05:35.848Z,2.40
2022-10-02T17:08:10.211Z,2.67
2022-10-02T17:10:53.139Z,2.80
2022-10-02T17:13:29.023Z,2.90
2022-10-02T17:16:04.589Z,2.43
2022-10-02T17:18:42.303Z,2.10
2022-10-02T17:21:16.882Z,1.93
2022-10-02T17:23:56.674Z,2.33
2022-10-02T17:26:33.622Z,2.43
2022-10-02T17:29:11.262Z,2.30
2022-10-02T17:31:48.770Z,2.20
2022-10-02T17:34:25.470Z,2.07
2022-10-02T17:37:22.903Z,2.50
2022-10-02T17:40:05.041Z,2.47
2022-10-02T17:42:45.419Z,2.93
2022-10-02T17:45:29.532Z,2.60
2022-10-02T17:48:18.977Z,2.60
2022-10-02T17:51:02.174Z,2.50
2022-10-02T17:54:05.910Z,2.70
2022-10-02T17:56:57.196Z,2.00
2022-10-02T18:00:06.964Z,2.17
2022-10-02T18:03:00.782Z,2.60
2022-10-02T18:05:37.984Z,2.93
2022-10-02T18:08:19.679Z,2.40
2022-10-02T18:11:06.257Z,2.50
2022-10-02T18:13:52.366Z,2.50
2022-10-02T18:16:33.962Z,2.67
2022-10-02T18:19:28.087Z,2.70
2022-10-02T18:22:20.623Z,2.60
2022-10-02T18:25:12.465Z,2.93
2022-10-02T18:28:04.243Z,2.80
2022-10-02T18:30:41.011Z,2.23
2022-10-02T18:33:33.081Z,1.90
2022-10-02T18:36:16.841Z,2.30
2022-10-02T18:38:55.772Z,3.13
2022-10-02T18:41:40.682Z,2.90
2022-10-02T18:44:21.887Z,3.70
2022-10-02T18:46:56.222Z,2.70
2022-10-02T18:49:38.902Z,4.20
2022-10-02T18:52:48.922Z,3.07
2022-10-02T18:55:42.390Z,3.40
2022-10-02T18:58:30.931Z,3.10
2022-10-02T19:01:28.646Z,3.10
2022-10-02T19:04:23.542Z,3.50
2022-10-02T19:07:02.196Z,2.80
2022-10-02T19:09:34.188Z,3.00
2022-10-02T19:12:15.091Z,2.67
2022-10-02T19:14:49.673Z,3.67
2022-10-02T19:17:30.719Z,2.50
2022-10-02T19:19:59.090Z,2.70
2022-10-02T19:22:30.666Z,2.80
2022-10-02T19:25:06.480Z,3.60
2022-10-02T19:27:37.703Z,2.90
2022-10-02T19:30:13.527Z,3.13
2022-10-02T19:32:44.216Z,3.30
2022-10-02T19:35:19.144Z,2.80
2022-10-02T19:37:54.945Z,3.40
2022-10-02T19:40:28.079Z,2.97
2022-10-02T19:43:02.545Z,3.33
2022-10-02T19:45:32.700Z,2.60
2022-10-02T19:48:07.336Z,2.97
2022-10-02T19:50:41.602Z,3.20
2022-10-02T19:53:23.300Z,4.03
2022-10-02T19:55:55.614Z,4.00
2022-10-02T19:58:34.470Z,3.90
2022-10-02T20:01:07.798Z,3.00
2022-10-02T20:03:38.815Z,2.93
2022-10-02T20:06:17.308Z,2.67
2022-10-02T20:08:47.863Z,3.27
2022-10-02T20:11:20.214Z,3.60
2022-10-02T20:13:52.876Z,3.33
2022-10-02T20:16:41.049Z,3.17
2022-10-02T20:19:23.526Z,3.93
2022-10-02T20:21:54.816Z,3.90
2022-10-02T20:24:29.739Z,3.10
2022-10-02T20:27:06.182Z,3.50
2022-10-02T20:29:39.933Z,3.53
2022-10-02T20:32:16.736Z,3.37
2022-10-02T20:34:54.667Z,4.10
2022-10-02T20:37:26.705Z,3.37
2022-10-02T20:40:02.144Z,4.10
2022-10-02T20:42:43.546Z,3.50
2022-10-02T20:45:13.040Z,3.50
2022-10-02T20:48:56.016Z,3.60
2022-10-02T20:51:44.556Z,3.80
2022-10-02T20:54:39.232Z,3.57
2022-10-02T20:57:56.294Z,4.43
2022-10-02T21:00:26.937Z,4.17
2022-10-02T21:03:49.966Z,4.00
2022-10-02T21:07:08.140Z,3.73
2022-10-02T21:10:17.982Z,4.00
2022-10-02T21:13:24.536Z,3.20
2022-10-02T21:16:18.326Z,3.37
2022-10-02T21:19:30.757Z,3.50
2022-10-02T21:22:19.323Z,3.60
2022-10-02T21:25:29.604Z,3.60
2022-10-02T21:28:45.644Z,4.10
2022-10-02T21:31:29.839Z,3.80
2022-10-02T21:34:21.269Z,4.27
2022-10-02T21:36:57.375Z,3.50
2022-10-02T21:43:05.142Z,3.20
2022-10-02T21:46:07.990Z,3.83
2022-10-02T21:49:02.991Z,3.63
2022-10-02T21:55:38.719Z,3.40
2022-10-02T21:58:46.227Z,4.20
2022-10-02T22:02:06.807Z,4.90
2022-10-02T22:05:10.831Z,4.87
2022-10-02T22:07:47.898Z,6.17
2022-10-02T22:10:26.262Z,8.17
2022-10-02T22:13:16.327Z,9.53
2022-10-02T22:15:55.505Z,10.73
2022-10-02T22:18:32.244Z,8.13
2022-10-02T22:21:20.889Z,9.63
2022-10-02T22:24:16.265Z,9.03
2022-10-02T22:27:09.261Z,7.77
2022-10-02T22:29:46.554Z,8.07
2022-10-02T22:33:00.281Z,7.10
2022-10-02T22:35:39.404Z,7.50
2022-10-02T22:38:15.027Z,8.43
2022-10-02T22:40:52.627Z,7.60
2022-10-02T22:43:27.774Z,7.17
2022-10-02T22:46:04.861Z,7.27
2022-10-02T22:48:40.734Z,7.13
2022-10-02T22:51:19.697Z,7.27
2022-10-02T22:53:52.257Z,6.70
2022-10-02T22:56:32.235Z,6.40
2022-10-02T22:59:10.279Z,7.20
2022-10-02T23:01:47.658Z,8.80
2022-10-02T23:04:26.694Z,7.13
2022-10-02T23:07:01.626Z,9.03
2022-10-02T23:09:42.680Z,8.17
2022-10-02T23:12:18.672Z,7.50
2022-10-02T23:15:02.148Z,7.93
2022-10-02T23:17:40.568Z,6.30
2022-10-02T23:20:17.331Z,8.60
2022-10-02T23:22:55.067Z,8.87
2022-10-02T23:25:28.496Z,7.43
2022-10-02T23:28:03.311Z,7.57
2022-10-02T23:30:34.578Z,7.93
2022-10-02T23:33:08.455Z,6.73
2022-10-02T23:35:46.658Z,7.10
2022-10-02T23:38:19.329Z,7.80
2022-10-02T23:41:21.305Z,6.43
2022-10-02T23:44:00.696Z,7.57
2022-10-02T23:46:38.902Z,6.67
2022-10-02T23:49:14.923Z,6.73
2022-10-02T23:51:51.935Z,6.30
2022-10-02T23:54:47.202Z,5.83
2022-10-02T23:57:43.797Z,6.30
